»·PEaware :: N48786 KWHP-KBFL

N48786 :: KWHP-KBFL

FLIGHT INFORMATION

Flight Status: Arrived
Operator: Privately registered:
United States
More flights under this callsign
Pilot: Dez L. (21124)
Aircraft: CESSNA 172 SKYHAWK
(C172)
More flights by this aircraft type
Origin: KWHP Whiteman
United States
Destination: KBFL Meadows
United States
More flights between these airports :: More routes between these airports
Route:
File this flight plan on PilotEdge
Remarks:
Altitude:
(Current/Filed)
8,500ft
Speed:
(Current/Filed)
100kts
Departed: 05-Nov-23 12:38 PM
Arrived: 05-Nov-23 01:26 PM
Distance/Time
Traveled:
77nm/0:48
Distance/Time
To Go:
Arrived

Flight Plot

Page will automatically refresh every two minutes.


Map Options




Map Legend


Flown Route
Filed Route
Departure Airport
Arrival Airport
Navaid (VOR, NDB)
Fix

Horizontal Profiles

Position Reports

Time Latitude Longitude Heading Altitude Ground
Speed
05-Nov-23 12:27 34.260397 -118.411886 225 986ft 0kts
05-Nov-23 12:28 34.260397 -118.411886 225 986ft 0kts
05-Nov-23 12:28 34.260397 -118.411886 225 986ft 0kts
05-Nov-23 12:29 34.260398 -118.411886 225 986ft 0kts
05-Nov-23 12:31 34.260398 -118.411885 225 986ft 0kts
05-Nov-23 12:31 34.260398 -118.411885 225 986ft 0kts
05-Nov-23 12:32 34.259705 -118.412764 233 985ft 7kts
05-Nov-23 12:33 34.261407 -118.415028 319 984ft 13kts
05-Nov-23 12:34 34.263698 -118.417473 283 997ft 0kts
05-Nov-23 12:35 34.263698 -118.417473 283 997ft 0kts
05-Nov-23 12:36 34.263698 -118.417473 283 997ft 0kts
05-Nov-23 12:37 34.256461 -118.410260 139 1077ft 91kts
05-Nov-23 12:38 34.251447 -118.386129 38 1906ft 95kts
05-Nov-23 12:39 34.273971 -118.400152 315 2184ft 97kts
05-Nov-23 12:40 34.292408 -118.422803 323 2922ft 96kts
05-Nov-23 12:41 34.313361 -118.443084 318 3682ft 94kts
05-Nov-23 12:42 34.335904 -118.453474 353 4301ft 94kts
05-Nov-23 12:43 34.361092 -118.464203 330 4970ft 96kts
05-Nov-23 12:44 34.384599 -118.478052 333 5587ft 96kts
05-Nov-23 12:45 34.407128 -118.489655 333 6350ft 83kts
05-Nov-23 12:46 34.428350 -118.500417 332 7015ft 84kts
05-Nov-23 12:47 34.450083 -118.510773 333 7675ft 83kts
05-Nov-23 12:48 34.471593 -118.520304 332 8344ft 79kts
05-Nov-23 12:49 34.497330 -118.531707 333 8504ft 117kts
05-Nov-23 12:50 34.528146 -118.545887 333 8501ft 113kts
05-Nov-23 12:51 34.557529 -118.559151 337 8505ft 114kts
05-Nov-23 12:52 34.589502 -118.563059 346 8504ft 113kts
05-Nov-23 12:53 34.619536 -118.567494 346 8516ft 108kts
05-Nov-23 12:54 34.651249 -118.572203 346 8526ft 116kts
05-Nov-23 12:55 34.683519 -118.580021 336 8514ft 119kts
05-Nov-23 12:56 34.713935 -118.593704 330 8512ft 114kts
05-Nov-23 12:57 34.740691 -118.608163 329 8511ft 102kts
05-Nov-23 12:58 34.766173 -118.621967 329 8513ft 99kts
05-Nov-23 12:59 34.791992 -118.635952 329 8519ft 104kts
05-Nov-23 13:00 34.818720 -118.650428 329 8525ft 105kts
05-Nov-23 13:01 34.845877 -118.665152 329 8531ft 107kts
05-Nov-23 13:02 34.872972 -118.679855 329 8544ft 107kts
05-Nov-23 13:03 34.900028 -118.694553 328 8548ft 107kts
05-Nov-23 13:04 34.927385 -118.709566 328 8561ft 109kts
05-Nov-23 13:05 34.955130 -118.725565 325 8558ft 109kts
05-Nov-23 13:06 34.981652 -118.743589 324 8387ft 110kts
05-Nov-23 13:07 35.007399 -118.761549 323 7891ft 105kts
05-Nov-23 13:08 35.032705 -118.779270 324 7405ft 104kts
05-Nov-23 13:09 35.057906 -118.796922 325 6931ft 105kts
05-Nov-23 13:10 35.083310 -118.814715 326 6498ft 101kts
05-Nov-23 13:11 35.106219 -118.830831 326 6487ft 99kts
05-Nov-23 13:12 35.131421 -118.848478 326 6492ft 106kts
05-Nov-23 13:13 35.157295 -118.866624 327 6464ft 108kts
05-Nov-23 13:14 35.184262 -118.885542 327 6181ft 112kts
05-Nov-23 13:15 35.211301 -118.904551 327 5889ft 112kts
05-Nov-23 13:16 35.238290 -118.923523 328 5591ft 109kts
05-Nov-23 13:17 35.264518 -118.941986 327 5296ft 108kts
05-Nov-23 13:18 35.291917 -118.957965 337 4943ft 114kts
05-Nov-23 13:19 35.320408 -118.970622 337 4445ft 105kts
05-Nov-23 13:20 35.348481 -118.982043 343 3955ft 107kts
05-Nov-23 13:21 35.377807 -118.992207 343 3222ft 110kts
05-Nov-23 13:22 35.399390 -119.014220 316 2228ft 100kts
05-Nov-23 13:23 35.417346 -119.036783 322 949ft 93kts
05-Nov-23 13:24 35.430600 -119.052515 317 537ft 62kts
05-Nov-23 13:25 35.436285 -119.057250 82 493ft 12kts
05-Nov-23 13:26 35.434283 -119.053735 348 481ft 6kts
05-Nov-23 13:27 35.434948 -119.052748 89 489ft 0kts

Navigation Log

Ident Type
Flight plan parsing failed, navigation log unavailable